sensor_id;sensor_type;location;lat;lon;timestamp;pressure;altitude;pressure_sealevel;temperature;humidity
60897;BME280;46749;32.932;-117.130;2023-02-28T00:00:23;100889.59;;;17.69;49.31
60897;BME280;46749;32.932;-117.130;2023-02-28T00:02:50;100886.03;;;17.65;49.37
60897;BME280;46749;32.932;-117.130;2023-02-28T00:05:21;100896.53;;;17.62;49.48
60897;BME280;46749;32.932;-117.130;2023-02-28T00:07:48;100895.66;;;17.60;49.65
60897;BME280;46749;32.932;-117.130;2023-02-28T00:10:20;100902.63;;;17.60;49.57
60897;BME280;46749;32.932;-117.130;2023-02-28T00:12:49;100885.09;;;17.59;49.64
60897;BME280;46749;32.932;-117.130;2023-02-28T00:15:16;100906.97;;;17.58;49.74
60897;BME280;46749;32.932;-117.130;2023-02-28T00:17:43;100895.59;;;17.56;49.73
60897;BME280;46749;32.932;-117.130;2023-02-28T00:20:10;100899.09;;;17.55;49.80
60897;BME280;46749;32.932;-117.130;2023-02-28T00:22:39;100898.16;;;17.52;49.73
60897;BME280;46749;32.932;-117.130;2023-02-28T00:25:06;100892.03;;;17.52;49.83
60897;BME280;46749;32.932;-117.130;2023-02-28T00:27:34;100906.03;;;17.52;49.93
60897;BME280;46749;32.932;-117.130;2023-02-28T00:30:01;100910.41;;;17.52;49.87
60897;BME280;46749;32.932;-117.130;2023-02-28T00:32:27;100919.16;;;17.51;49.96
60897;BME280;46749;32.932;-117.130;2023-02-28T00:34:53;100924.41;;;17.49;49.90
60897;BME280;46749;32.932;-117.130;2023-02-28T00:37:19;100929.66;;;17.48;49.89
60897;BME280;46749;32.932;-117.130;2023-02-28T00:39:45;100926.16;;;17.47;49.69
60897;BME280;46749;32.932;-117.130;2023-02-28T00:42:12;100927.84;;;17.47;49.69
60897;BME280;46749;32.932;-117.130;2023-02-28T00:44:38;100946.38;;;17.56;49.88
60897;BME280;46749;32.932;-117.130;2023-02-28T00:47:04;100938.72;;;17.73;49.89
60897;BME280;46749;32.932;-117.130;2023-02-28T00:49:31;100948.47;;;17.86;49.59
60897;BME280;46749;32.932;-117.130;2023-02-28T00:51:57;100947.66;;;17.92;49.59
60897;BME280;46749;32.932;-117.130;2023-02-28T00:54:24;100959.94;;;17.96;49.55
60897;BME280;46749;32.932;-117.130;2023-02-28T00:56:50;100952.13;;;18.00;49.46
60897;BME280;46749;32.932;-117.130;2023-02-28T00:59:17;100960.94;;;18.09;49.42
60897;BME280;46749;32.932;-117.130;2023-02-28T01:01:45;100973.28;;;18.16;49.11
60897;BME280;46749;32.932;-117.130;2023-02-28T01:04:12;100968.13;;;18.28;49.31
60897;BME280;46749;32.932;-117.130;2023-02-28T01:06:39;100960.31;;;18.36;49.04
60897;BME280;46749;32.932;-117.130;2023-02-28T01:09:06;100972.56;;;18.30;49.00
60897;BME280;46749;32.932;-117.130;2023-02-28T01:11:33;100974.25;;;18.25;49.08
60897;BME280;46749;32.932;-117.130;2023-02-28T01:14:00;100974.22;;;18.22;49.54
60897;BME280;46749;32.932;-117.130;2023-02-28T01:16:27;100952.28;;;18.19;49.22
60897;BME280;46749;32.932;-117.130;2023-02-28T01:18:54;100965.41;;;18.17;49.31
60897;BME280;46749;32.932;-117.130;2023-02-28T01:21:21;100975.06;;;18.17;49.08
60897;BME280;46749;32.932;-117.130;2023-02-28T01:23:48;100963.63;;;18.16;49.32
60897;BME280;46749;32.932;-117.130;2023-02-28T01:26:20;100980.31;;;18.17;49.34
60897;BME280;46749;32.932;-117.130;2023-02-28T01:28:47;100966.31;;;18.18;49.15
60897;BME280;46749;32.932;-117.130;2023-02-28T01:31:14;100991.72;;;18.19;49.27
60897;BME280;46749;32.932;-117.130;2023-02-28T01:33:41;100982.06;;;18.18;49.20
60897;BME280;46749;32.932;-117.130;2023-02-28T01:36:13;101003.97;;;18.18;49.38
60897;BME280;46749;32.932;-117.130;2023-02-28T01:38:41;101015.38;;;18.19;49.32
60897;BME280;46749;32.932;-117.130;2023-02-28T01:41:09;101010.13;;;18.19;49.22
60897;BME280;46749;32.932;-117.130;2023-02-28T01:46:10;100988.28;;;18.26;49.05
60897;BME280;46749;32.932;-117.130;2023-02-28T01:49:00;100990.91;;;18.26;49.03
60897;BME280;46749;32.932;-117.130;2023-02-28T01:51:49;100984.78;;;18.27;49.35
60897;BME280;46749;32.932;-117.130;2023-02-28T01:54:22;100997.91;;;18.27;49.34
60897;BME280;46749;32.932;-117.130;2023-02-28T01:56:55;100993.53;;;18.26;48.95
60897;BME280;46749;32.932;-117.130;2023-02-28T01:59:38;100990.91;;;18.24;49.30
60897;BME280;46749;32.932;-117.130;2023-02-28T02:02:17;100995.28;;;18.24;48.99
60897;BME280;46749;32.932;-117.130;2023-02-28T02:07:16;101002.31;;;18.26;49.18
60897;BME280;46749;32.932;-117.130;2023-02-28T02:09:43;100990.88;;;18.23;49.20
60897;BME280;46749;32.932;-117.130;2023-02-28T02:12:43;101012.75;;;18.20;49.14
60897;BME280;46749;32.932;-117.130;2023-02-28T02:15:32;101013.63;;;18.21;49.34
60897;BME280;46749;32.932;-117.130;2023-02-28T02:21:09;101023.28;;;18.22;49.19
60897;BME280;46749;32.932;-117.130;2023-02-28T02:27:20;101012.75;;;18.20;49.43
60897;BME280;46749;32.932;-117.130;2023-02-28T02:36:13;101018.88;;;18.18;49.64
60897;BME280;46749;32.932;-117.130;2023-02-28T02:38:53;101025.84;;;18.16;49.49
60897;BME280;46749;32.932;-117.130;2023-02-28T02:43:53;101029.34;;;18.15;49.76
60897;BME280;46749;32.932;-117.130;2023-02-28T02:46:48;101032.84;;;18.14;49.95
60897;BME280;46749;32.932;-117.130;2023-02-28T02:49:26;101039.84;;;18.13;49.73
60897;BME280;46749;32.932;-117.130;2023-02-28T02:52:14;101053.81;;;18.08;49.83
60897;BME280;46749;32.932;-117.130;2023-02-28T02:54:45;101049.34;;;18.02;49.83
60897;BME280;46749;32.932;-117.130;2023-02-28T02:57:45;101055.47;;;17.98;50.14
60897;BME280;46749;32.932;-117.130;2023-02-28T03:00:18;101058.94;;;17.95;50.25
60897;BME280;46749;32.932;-117.130;2023-02-28T03:02:47;101056.28;;;17.94;50.37
60897;BME280;46749;32.932;-117.130;2023-02-28T03:05:21;101052.72;;;17.90;50.42
60897;BME280;46749;32.932;-117.130;2023-02-28T03:07:49;101059.72;;;17.88;50.37
60897;BME280;46749;32.932;-117.130;2023-02-28T03:10:34;101097.31;;;17.84;50.42
60897;BME280;46749;32.932;-117.130;2023-02-28T03:27:53;101119.97;;;17.74;50.59
60897;BME280;46749;32.932;-117.130;2023-02-28T03:30:04;101091.06;;;17.73;50.72
60897;BME280;46749;32.932;-117.130;2023-02-28T03:32:38;101084.88;;;17.71;50.80
60897;BME280;46749;32.932;-117.130;2023-02-28T03:35:13;101089.22;;;17.69;50.92
60897;BME280;46749;32.932;-117.130;2023-02-28T03:37:51;101089.22;;;17.67;50.86
60897;BME280;46749;32.932;-117.130;2023-02-28T03:40:23;101086.59;;;17.67;50.74
60897;BME280;46749;32.932;-117.130;2023-02-28T03:42:56;101086.53;;;17.66;50.85
60897;BME280;46749;32.932;-117.130;2023-02-28T03:45:28;101092.66;;;17.65;50.80
60897;BME280;46749;32.932;-117.130;2023-02-28T03:48:02;101093.50;;;17.62;50.92
60897;BME280;46749;32.932;-117.130;2023-02-28T03:50:39;101090.88;;;17.62;50.75
60897;BME280;46749;32.932;-117.130;2023-02-28T03:53:25;101101.38;;;17.61;50.89
60897;BME280;46749;32.932;-117.130;2023-02-28T03:56:37;101099.59;;;17.60;51.14
60897;BME280;46749;32.932;-117.130;2023-02-28T03:59:15;101093.47;;;17.59;50.98
60897;BME280;46749;32.932;-117.130;2023-02-28T04:01:48;101099.56;;;17.58;51.01
60897;BME280;46749;32.932;-117.130;2023-02-28T04:04:16;101109.19;;;17.56;50.93
60897;BME280;46749;32.932;-117.130;2023-02-28T04:06:43;101103.06;;;17.56;50.95
60897;BME280;46749;32.932;-117.130;2023-02-28T04:09:12;101113.56;;;17.56;50.89
60897;BME280;46749;32.932;-117.130;2023-02-28T04:11:45;101107.38;;;17.53;51.06
60897;BME280;46749;32.932;-117.130;2023-02-28T04:14:12;101109.13;;;17.51;51.04
60897;BME280;46749;32.932;-117.130;2023-02-28T04:16:41;101109.13;;;17.51;50.98
60897;BME280;46749;32.932;-117.130;2023-02-28T04:19:08;101115.25;;;17.52;51.17
60897;BME280;46749;32.932;-117.130;2023-02-28T04:21:43;101110.00;;;17.52;50.97
60897;BME280;46749;32.932;-117.130;2023-02-28T04:24:12;101099.47;;;17.49;50.93
60897;BME280;46749;32.932;-117.130;2023-02-28T04:26:44;101096.81;;;17.47;51.01
60897;BME280;46749;32.932;-117.130;2023-02-28T04:29:13;101095.09;;;17.48;51.08
60897;BME280;46749;32.932;-117.130;2023-02-28T04:31:39;101095.91;;;17.47;51.18
60897;BME280;46749;32.932;-117.130;2023-02-28T04:34:06;101105.53;;;17.46;51.20
60897;BME280;46749;32.932;-117.130;2023-02-28T04:36:32;101104.66;;;17.44;51.11
60897;BME280;46749;32.932;-117.130;2023-02-28T04:38:58;101113.38;;;17.43;51.11
60897;BME280;46749;32.932;-117.130;2023-02-28T04:41:24;101108.13;;;17.42;51.07
60897;BME280;46749;32.932;-117.130;2023-02-28T04:43:52;101106.38;;;17.42;50.89
60897;BME280;46749;32.932;-117.130;2023-02-28T04:46:19;101101.06;;;17.41;51.08
60897;BME280;46749;32.932;-117.130;2023-02-28T04:48:45;101104.56;;;17.40;51.16
60897;BME280;46749;32.932;-117.130;2023-02-28T04:51:13;101106.31;;;17.39;51.13
60897;BME280;46749;32.932;-117.130;2023-02-28T04:53:41;101114.19;;;17.38;50.99
60897;BME280;46749;32.932;-117.130;2023-02-28T04:56:11;101109.81;;;17.38;50.94
60897;BME280;46749;32.932;-117.130;2023-02-28T04:58:38;101113.31;;;17.39;51.04
60897;BME280;46749;32.932;-117.130;2023-02-28T05:01:29;101114.16;;;17.36;51.27
60897;BME280;46749;32.932;-117.130;2023-02-28T05:03:57;101114.16;;;17.36;51.08
60897;BME280;46749;32.932;-117.130;2023-02-28T05:06:26;101119.38;;;17.35;51.21
60897;BME280;46749;32.932;-117.130;2023-02-28T05:08:53;101123.72;;;17.34;51.04
60897;BME280;46749;32.932;-117.130;2023-02-28T05:11:25;101135.97;;;17.34;51.06
60897;BME280;46749;32.932;-117.130;2023-02-28T05:13:52;101134.22;;;17.33;51.17
60897;BME280;46749;32.932;-117.130;2023-02-28T05:16:19;101144.72;;;17.31;51.26
60897;BME280;46749;32.932;-117.130;2023-02-28T05:18:46;101146.44;;;17.31;51.26
60897;BME280;46749;32.932;-117.130;2023-02-28T05:21:26;101154.31;;;17.29;51.07
60897;BME280;46749;32.932;-117.130;2023-02-28T05:23:53;101151.69;;;17.29;51.19
60897;BME280;46749;32.932;-117.130;2023-02-28T05:26:20;101164.81;;;17.29;50.90
60897;BME280;46749;32.932;-117.130;2023-02-28T05:28:46;101164.75;;;17.26;51.07
60897;BME280;46749;32.932;-117.130;2023-02-28T05:31:13;101180.47;;;17.24;51.13
60897;BME280;46749;32.932;-117.130;2023-02-28T05:33:40;101208.47;;;17.24;51.16
60897;BME280;46749;32.932;-117.130;2023-02-28T05:36:06;101206.72;;;17.23;50.92
60897;BME280;46749;32.932;-117.130;2023-02-28T05:38:33;101215.41;;;17.22;50.88
60897;BME280;46749;32.932;-117.130;2023-02-28T05:40:59;101225.03;;;17.21;51.01
60897;BME280;46749;32.932;-117.130;2023-02-28T05:43:25;101219.78;;;17.20;51.06
60897;BME280;46749;32.932;-117.130;2023-02-28T05:45:52;101219.75;;;17.18;50.93
60897;BME280;46749;32.932;-117.130;2023-02-28T05:48:18;101211.84;;;17.17;51.12
60897;BME280;46749;32.932;-117.130;2023-02-28T05:50:44;101197.81;;;17.15;50.95
60897;BME280;46749;32.932;-117.130;2023-02-28T05:53:11;101189.03;;;17.13;50.84
60897;BME280;46749;32.932;-117.130;2023-02-28T05:55:38;101191.63;;;17.11;51.01
60897;BME280;46749;32.932;-117.130;2023-02-28T05:58:04;101182.88;;;17.11;51.40
60897;BME280;46749;32.932;-117.130;2023-02-28T06:00:30;101175.88;;;17.11;50.96
60897;BME280;46749;32.932;-117.130;2023-02-28T06:02:56;101167.13;;;17.11;50.89
60897;BME280;46749;32.932;-117.130;2023-02-28T06:05:25;101180.25;;;17.11;51.02
60897;BME280;46749;32.932;-117.130;2023-02-28T06:07:51;101178.53;;;17.13;51.22
60897;BME280;46749;32.932;-117.130;2023-02-28T06:10:18;101173.25;;;17.10;51.27
60897;BME280;46749;32.932;-117.130;2023-02-28T06:12:45;101171.44;;;17.09;51.22
60897;BME280;46749;32.932;-117.130;2023-02-28T06:15:15;101178.44;;;17.07;51.20
60897;BME280;46749;32.932;-117.130;2023-02-28T06:17:43;101191.53;;;17.07;51.15
60897;BME280;46749;32.932;-117.130;2023-02-28T06:20:10;101188.03;;;17.05;50.90
60897;BME280;46749;32.932;-117.130;2023-02-28T06:22:39;101191.47;;;17.02;50.99
60897;BME280;46749;32.932;-117.130;2023-02-28T06:25:06;101200.19;;;17.01;50.93
60897;BME280;46749;32.932;-117.130;2023-02-28T06:27:34;101195.78;;;16.98;51.02
60897;BME280;46749;32.932;-117.130;2023-02-28T06:30:00;101199.28;;;16.97;51.00
60897;BME280;46749;32.932;-117.130;2023-02-28T06:32:28;101206.22;;;16.95;50.90
60897;BME280;46749;32.932;-117.130;2023-02-28T06:34:54;101199.19;;;16.94;50.85
60897;BME280;46749;32.932;-117.130;2023-02-28T06:37:22;101207.03;;;16.91;50.77
60897;BME280;46749;32.932;-117.130;2023-02-28T06:39:52;101211.34;;;16.89;50.87
60897;BME280;46749;32.932;-117.130;2023-02-28T06:42:18;101214.84;;;16.88;50.69
60897;BME280;46749;32.932;-117.130;2023-02-28T06:44:44;101218.31;;;16.86;50.68
60897;BME280;46749;32.932;-117.130;2023-02-28T06:47:10;101219.16;;;16.85;50.48
60897;BME280;46749;32.932;-117.130;2023-02-28T06:49:36;101224.34;;;16.83;50.44
60897;BME280;46749;32.932;-117.130;2023-02-28T06:52:04;101221.69;;;16.80;50.74
60897;BME280;46749;32.932;-117.130;2023-02-28T06:54:30;101214.69;;;16.79;50.47
60897;BME280;46749;32.932;-117.130;2023-02-28T06:56:57;101214.59;;;16.76;50.47
60897;BME280;46749;32.932;-117.130;2023-02-28T06:59:24;101225.97;;;16.75;50.17
60897;BME280;46749;32.932;-117.130;2023-02-28T07:01:50;101224.19;;;16.74;50.55
60897;BME280;46749;32.932;-117.130;2023-02-28T07:04:16;101225.06;;;16.73;50.63
60897;BME280;46749;32.932;-117.130;2023-02-28T07:06:42;101224.97;;;16.70;50.43
60897;BME280;46749;32.932;-117.130;2023-02-28T07:09:09;101231.06;;;16.69;50.32
60897;BME280;46749;32.932;-117.130;2023-02-28T07:11:36;101221.41;;;16.68;50.42
60897;BME280;46749;32.932;-117.130;2023-02-28T07:14:02;101228.38;;;16.66;50.43
60897;BME280;46749;32.932;-117.130;2023-02-28T07:16:28;101221.31;;;16.63;50.46
60897;BME280;46749;32.932;-117.130;2023-02-28T07:18:55;101219.56;;;16.62;50.54
60897;BME280;46749;32.932;-117.130;2023-02-28T07:21:21;101216.91;;;16.61;50.34
60897;BME280;46749;32.932;-117.130;2023-02-28T07:23:48;101224.72;;;16.59;50.34
60897;BME280;46749;32.932;-117.130;2023-02-28T07:26:16;101229.94;;;16.58;50.21
60897;BME280;46749;32.932;-117.130;2023-02-28T07:28:45;101229.94;;;16.56;50.33
60897;BME280;46749;32.932;-117.130;2023-02-28T07:31:12;101235.16;;;16.55;50.54
60897;BME280;46749;32.932;-117.130;2023-02-28T07:33:42;101226.34;;;16.53;50.32
60897;BME280;46749;32.932;-117.130;2023-02-28T07:36:17;101226.31;;;16.51;50.58
60897;BME280;46749;32.932;-117.130;2023-02-28T07:38:47;101216.69;;;16.50;50.33
60897;BME280;46749;32.932;-117.130;2023-02-28T07:41:21;101222.78;;;16.48;50.10
60897;BME280;46749;32.932;-117.130;2023-02-28T07:43:47;101230.59;;;16.46;50.07
60897;BME280;46749;32.932;-117.130;2023-02-28T07:46:15;101232.31;;;16.45;50.14
60897;BME280;46749;32.932;-117.130;2023-02-28T07:48:43;101226.19;;;16.43;50.32
60897;BME280;46749;32.932;-117.130;2023-02-28T07:51:09;101228.78;;;16.42;50.24
60897;BME280;46749;32.932;-117.130;2023-02-28T07:53:35;101231.34;;;16.40;50.06
60897;BME280;46749;32.932;-117.130;2023-02-28T07:56:03;101226.03;;;16.37;50.21
60897;BME280;46749;32.932;-117.130;2023-02-28T07:58:30;101224.28;;;16.36;49.91
60897;BME280;46749;32.932;-117.130;2023-02-28T08:00:56;101227.75;;;16.35;50.11
60897;BME280;46749;32.932;-117.130;2023-02-28T08:03:23;101225.09;;;16.34;50.08
60897;BME280;46749;32.932;-117.130;2023-02-28T08:05:50;101225.94;;;16.33;49.93
60897;BME280;46749;32.932;-117.130;2023-02-28T08:08:18;101223.28;;;16.31;49.97
60897;BME280;46749;32.932;-117.130;2023-02-28T08:10:44;101222.41;;;16.29;49.94
60897;BME280;46749;32.932;-117.130;2023-02-28T08:13:10;101218.88;;;16.29;50.18
60897;BME280;46749;32.932;-117.130;2023-02-28T08:15:36;101230.16;;;16.26;49.84
60897;BME280;46749;32.932;-117.130;2023-02-28T08:18:03;101230.16;;;16.26;50.04
60897;BME280;46749;32.932;-117.130;2023-02-28T08:20:29;101226.66;;;16.24;49.98
60897;BME280;46749;32.932;-117.130;2023-02-28T08:22:56;101229.25;;;16.23;50.10
60897;BME280;46749;32.932;-117.130;2023-02-28T08:25:22;101232.66;;;16.20;49.87
60897;BME280;46749;32.932;-117.130;2023-02-28T08:27:51;101228.28;;;16.19;50.01
60897;BME280;46749;32.932;-117.130;2023-02-28T08:30:17;101226.50;;;16.18;49.85
60897;BME280;46749;32.932;-117.130;2023-02-28T08:32:44;101228.22;;;16.16;49.81
60897;BME280;46749;32.932;-117.130;2023-02-28T08:35:10;101229.97;;;16.15;49.70
60897;BME280;46749;32.932;-117.130;2023-02-28T08:37:36;101236.00;;;16.13;49.81
60897;BME280;46749;32.932;-117.130;2023-02-28T08:40:02;101234.22;;;16.10;49.92
60897;BME280;46749;32.932;-117.130;2023-02-28T08:42:29;101233.34;;;16.10;49.71
60897;BME280;46749;32.932;-117.130;2023-02-28T08:44:55;101221.06;;;16.09;50.00
60897;BME280;46749;32.932;-117.130;2023-02-28T08:47:22;101222.78;;;16.07;50.08
60897;BME280;46749;32.932;-117.130;2023-02-28T08:49:48;101228.88;;;16.06;49.79
60897;BME280;46749;32.932;-117.130;2023-02-28T08:52:14;101227.09;;;16.05;49.73
60897;BME280;46749;32.932;-117.130;2023-02-28T08:54:41;101227.03;;;16.02;49.98
60897;BME280;46749;32.932;-117.130;2023-02-28T08:57:07;101232.25;;;16.02;49.87
60897;BME280;46749;32.932;-117.130;2023-02-28T08:59:33;101227.00;;;16.00;49.91
60897;BME280;46749;32.932;-117.130;2023-02-28T09:01:59;101217.34;;;15.98;49.85
60897;BME280;46749;32.932;-117.130;2023-02-28T09:04:25;101225.19;;;15.98;49.76
60897;BME280;46749;32.932;-117.130;2023-02-28T09:06:52;101228.63;;;15.95;49.88
60897;BME280;46749;32.932;-117.130;2023-02-28T09:09:18;101223.34;;;15.94;49.65
60897;BME280;46749;32.932;-117.130;2023-02-28T09:11:44;101221.59;;;15.93;49.98
60897;BME280;46749;32.932;-117.130;2023-02-28T09:14:10;101217.22;;;15.91;49.64
60897;BME280;46749;32.932;-117.130;2023-02-28T09:16:37;101217.16;;;15.90;49.81
60897;BME280;46749;32.932;-117.130;2023-02-28T09:19:03;101215.34;;;15.87;49.54
60897;BME280;46749;32.932;-117.130;2023-02-28T09:21:29;101209.22;;;15.85;49.91
60897;BME280;46749;32.932;-117.130;2023-02-28T09:23:55;101210.06;;;15.84;49.93
60897;BME280;46749;32.932;-117.130;2023-02-28T09:26:24;101205.66;;;15.83;49.76
60897;BME280;46749;32.932;-117.130;2023-02-28T09:28:51;101207.38;;;15.83;49.79
60897;BME280;46749;32.932;-117.130;2023-02-28T09:31:25;101211.72;;;15.81;49.68
60897;BME280;46749;32.932;-117.130;2023-02-28T09:33:55;101203.84;;;15.79;49.71
60897;BME280;46749;32.932;-117.130;2023-02-28T09:36:23;101201.19;;;15.78;49.65
60897;BME280;46749;32.932;-117.130;2023-02-28T09:38:49;101198.50;;;15.76;49.81
60897;BME280;46749;32.932;-117.130;2023-02-28T09:41:23;101205.47;;;15.74;49.62
60897;BME280;46749;32.932;-117.130;2023-02-28T09:44:01;101198.44;;;15.73;49.77
60897;BME280;46749;32.932;-117.130;2023-02-28T09:46:38;101197.56;;;15.73;49.87
60897;BME280;46749;32.932;-117.130;2023-02-28T09:49:23;101198.38;;;15.70;49.42
60897;BME280;46749;32.932;-117.130;2023-02-28T09:54:30;101188.72;;;15.68;49.56
60897;BME280;46749;32.932;-117.130;2023-02-28T09:57:11;101196.56;;;15.66;49.69
60897;BME280;46749;32.932;-117.130;2023-02-28T10:05:41;101181.59;;;15.62;49.70
60897;BME280;46749;32.932;-117.130;2023-02-28T10:08:25;101178.94;;;15.60;49.61
60897;BME280;46749;32.932;-117.130;2023-02-28T10:10:55;101174.47;;;15.58;49.71
60897;BME280;46749;32.932;-117.130;2023-02-28T10:16:14;101169.19;;;15.55;49.88
60897;BME280;46749;32.932;-117.130;2023-02-28T10:18:48;101167.38;;;15.52;49.73
60897;BME280;46749;32.932;-117.130;2023-02-28T10:21:21;101169.09;;;15.52;49.75
60897;BME280;46749;32.932;-117.130;2023-02-28T10:23:48;101167.34;;;15.51;49.80
60897;BME280;46749;32.932;-117.130;2023-02-28T10:26:17;101162.94;;;15.48;49.85
60897;BME280;46749;32.932;-117.130;2023-02-28T10:28:43;101161.19;;;15.49;49.80
60897;BME280;46749;32.932;-117.130;2023-02-28T10:31:19;101160.28;;;15.47;49.92
60897;BME280;46749;32.932;-117.130;2023-02-28T10:33:45;101146.31;;;15.46;49.66
60897;BME280;46749;32.932;-117.130;2023-02-28T10:36:19;101148.00;;;15.44;49.91
60897;BME280;46749;32.932;-117.130;2023-02-28T10:38:46;101141.88;;;15.44;49.76
60897;BME280;46749;32.932;-117.130;2023-02-28T10:41:26;101140.13;;;15.43;49.88
60897;BME280;46749;32.932;-117.130;2023-02-28T10:44:17;101134.78;;;15.39;49.93
60897;BME280;46749;32.932;-117.130;2023-02-28T10:46:45;101135.72;;;15.40;50.01
60897;BME280;46749;32.932;-117.130;2023-02-28T10:49:23;101126.06;;;15.39;49.88
60897;BME280;46749;32.932;-117.130;2023-02-28T10:51:58;101120.78;;;15.37;49.71
60897;BME280;46749;32.932;-117.130;2023-02-28T10:54:33;101120.78;;;15.37;50.04
60897;BME280;46749;32.932;-117.130;2023-02-28T10:57:21;101111.09;;;15.33;50.05
60897;BME280;46749;32.932;-117.130;2023-02-28T10:59:52;101115.50;;;15.34;49.74
60897;BME280;46749;32.932;-117.130;2023-02-28T11:02:34;101112.03;;;15.35;49.83
60897;BME280;46749;32.932;-117.130;2023-02-28T11:05:01;101110.22;;;15.33;49.84
60897;BME280;46749;32.932;-117.130;2023-02-28T11:07:27;101108.41;;;15.30;49.89
60897;BME280;46749;32.932;-117.130;2023-02-28T11:09:55;101111.91;;;15.29;50.05
60897;BME280;46749;32.932;-117.130;2023-02-28T11:14:57;101109.19;;;15.26;50.02
60897;BME280;46749;32.932;-117.130;2023-02-28T11:17:29;101106.56;;;15.26;50.14
60897;BME280;46749;32.932;-117.130;2023-02-28T11:20:02;101106.53;;;15.25;49.75
60897;BME280;46749;32.932;-117.130;2023-02-28T11:22:35;101107.41;;;15.24;50.07
60897;BME280;46749;32.932;-117.130;2023-02-28T11:25:21;101100.41;;;15.23;49.96
60897;BME280;46749;32.932;-117.130;2023-02-28T11:27:53;101106.50;;;15.22;50.07
60897;BME280;46749;32.932;-117.130;2023-02-28T11:30:35;101106.44;;;15.20;50.21
60897;BME280;46749;32.932;-117.130;2023-02-28T11:35:50;101093.28;;;15.17;50.11
60897;BME280;46749;32.932;-117.130;2023-02-28T11:38:17;101085.44;;;15.17;50.17
60897;BME280;46749;32.932;-117.130;2023-02-28T11:41:07;101087.16;;;15.15;50.05
60897;BME280;46749;32.932;-117.130;2023-02-28T11:49:43;101078.34;;;15.13;50.15
60897;BME280;46749;32.932;-117.130;2023-02-28T11:55:04;101074.88;;;15.14;49.97
60897;BME280;46749;32.932;-117.130;2023-02-28T12:06:17;101066.06;;;15.09;50.11
60897;BME280;46749;32.932;-117.130;2023-02-28T12:11:54;101057.28;;;15.07;50.34
60897;BME280;46749;32.932;-117.130;2023-02-28T12:17:32;101052.00;;;15.04;50.21
60897;BME280;46749;32.932;-117.130;2023-02-28T12:20:27;101052.00;;;15.04;50.50
60897;BME280;46749;32.932;-117.130;2023-02-28T12:28:50;101044.91;;;15.00;50.31
60897;BME280;46749;32.932;-117.130;2023-02-28T12:31:28;101043.16;;;14.99;50.36
60897;BME280;46749;32.932;-117.130;2023-02-28T12:34:22;101042.28;;;14.98;50.42
60897;BME280;46749;32.932;-117.130;2023-02-28T12:36:52;101043.16;;;14.99;50.37
60897;BME280;46749;32.932;-117.130;2023-02-28T12:39:36;101037.03;;;14.98;50.34
60897;BME280;46749;32.932;-117.130;2023-02-28T12:42:13;101032.69;;;14.99;50.52
60897;BME280;46749;32.932;-117.130;2023-02-28T12:45:08;101027.38;;;14.96;50.70
60897;BME280;46749;32.932;-117.130;2023-02-28T12:47:38;101032.69;;;14.99;50.71
60897;BME280;46749;32.932;-117.130;2023-02-28T12:50:10;101023.06;;;14.96;50.55
60897;BME280;46749;32.932;-117.130;2023-02-28T13:09:26;101027.25;;;14.90;50.60
60897;BME280;46749;32.932;-117.130;2023-02-28T13:11:55;101023.69;;;14.88;50.52
60897;BME280;46749;32.932;-117.130;2023-02-28T13:15:00;101009.78;;;14.89;50.72
60897;BME280;46749;32.932;-117.130;2023-02-28T13:17:20;101022.91;;;14.90;50.48
60897;BME280;46749;32.932;-117.130;2023-02-28T13:22:41;101020.22;;;14.87;50.72
60897;BME280;46749;32.932;-117.130;2023-02-28T13:28:08;100997.53;;;14.86;50.66
60897;BME280;46749;32.932;-117.130;2023-02-28T13:36:25;100996.63;;;14.84;50.71
60897;BME280;46749;32.932;-117.130;2023-02-28T13:38:56;100988.69;;;14.81;50.78
60897;BME280;46749;32.932;-117.130;2023-02-28T13:47:21;100985.16;;;14.79;50.78
60897;BME280;46749;32.932;-117.130;2023-02-28T13:49:27;100993.03;;;14.80;50.60
60897;BME280;46749;32.932;-117.130;2023-02-28T13:57:32;100972.97;;;14.79;50.78
60897;BME280;46749;32.932;-117.130;2023-02-28T14:05:34;100958.13;;;14.78;50.92
60897;BME280;46749;32.932;-117.130;2023-02-28T14:10:50;100948.47;;;14.76;50.71
60897;BME280;46749;32.932;-117.130;2023-02-28T14:13:46;100943.22;;;14.74;50.93
60897;BME280;46749;32.932;-117.130;2023-02-28T14:16:20;100958.91;;;14.74;51.30
60897;BME280;46749;32.932;-117.130;2023-02-28T14:21:27;100943.22;;;14.74;50.63
60897;BME280;46749;32.932;-117.130;2023-02-28T14:28:13;100936.25;;;14.75;50.96
60897;BME280;46749;32.932;-117.130;2023-02-28T14:30:20;100927.53;;;14.74;50.98
60897;BME280;46749;32.932;-117.130;2023-02-28T14:38:56;100906.56;;;14.71;50.92
60897;BME280;46749;32.932;-117.130;2023-02-28T14:41:39;100898.66;;;14.70;51.00
60897;BME280;46749;32.932;-117.130;2023-02-28T14:44:18;100902.13;;;14.69;51.08
60897;BME280;46749;32.932;-117.130;2023-02-28T14:46:48;100898.63;;;14.68;51.10
60897;BME280;46749;32.932;-117.130;2023-02-28T14:49:19;100891.66;;;14.67;50.67
60897;BME280;46749;32.932;-117.130;2023-02-28T14:51:50;100892.50;;;14.66;50.96
60897;BME280;46749;32.932;-117.130;2023-02-28T14:54:27;100890.78;;;14.68;50.89
60897;BME280;46749;32.932;-117.130;2023-02-28T14:56:54;100886.44;;;14.69;50.82
60897;BME280;46749;32.932;-117.130;2023-02-28T14:59:38;100888.19;;;14.68;51.04